sensor_id;sensor_type;location;lat;lon;timestamp;P1;durP1;ratioP1;P2;durP2;ratioP2
49730;SDS011;35622;52.008;5.426;2024-03-02T00:00:20;4.55;;;1.17;;
49730;SDS011;35622;52.008;5.426;2024-03-02T00:02:50;2.42;;;1.13;;
49730;SDS011;35622;52.008;5.426;2024-03-02T00:05:17;2.50;;;1.27;;
49730;SDS011;35622;52.008;5.426;2024-03-02T00:07:45;5.93;;;1.23;;
49730;SDS011;35622;52.008;5.426;2024-03-02T00:10:19;1.83;;;1.00;;
49730;SDS011;35622;52.008;5.426;2024-03-02T00:12:50;2.13;;;1.00;;
49730;SDS011;35622;52.008;5.426;2024-03-02T00:18:12;2.95;;;1.30;;
49730;SDS011;35622;52.008;5.426;2024-03-02T00:20:43;3.38;;;1.17;;
49730;SDS011;35622;52.008;5.426;2024-03-02T00:23:09;2.67;;;1.10;;
49730;SDS011;35622;52.008;5.426;2024-03-02T00:28:17;2.63;;;1.17;;
49730;SDS011;35622;52.008;5.426;2024-03-02T00:33:18;4.90;;;1.30;;
49730;SDS011;35622;52.008;5.426;2024-03-02T00:35:46;1.60;;;1.00;;
49730;SDS011;35622;52.008;5.426;2024-03-02T00:38:11;2.13;;;1.23;;
49730;SDS011;35622;52.008;5.426;2024-03-02T00:40:39;1.83;;;1.02;;
49730;SDS011;35622;52.008;5.426;2024-03-02T00:43:05;2.10;;;0.80;;
49730;SDS011;35622;52.008;5.426;2024-03-02T00:45:30;2.50;;;0.80;;
49730;SDS011;35622;52.008;5.426;2024-03-02T00:47:57;1.02;;;0.60;;
49730;SDS011;35622;52.008;5.426;2024-03-02T00:50:22;1.58;;;0.50;;
49730;SDS011;35622;52.008;5.426;2024-03-02T00:52:48;0.43;;;0.30;;
49730;SDS011;35622;52.008;5.426;2024-03-02T00:55:14;1.45;;;0.40;;
49730;SDS011;35622;52.008;5.426;2024-03-02T00:57:39;1.48;;;0.40;;
49730;SDS011;35622;52.008;5.426;2024-03-02T01:00:05;1.02;;;0.40;;
49730;SDS011;35622;52.008;5.426;2024-03-02T01:02:35;0.50;;;0.40;;
49730;SDS011;35622;52.008;5.426;2024-03-02T01:05:01;0.75;;;0.30;;
49730;SDS011;35622;52.008;5.426;2024-03-02T01:07:26;1.00;;;0.40;;
49730;SDS011;35622;52.008;5.426;2024-03-02T01:09:52;0.60;;;0.40;;
49730;SDS011;35622;52.008;5.426;2024-03-02T01:12:17;0.40;;;0.40;;
49730;SDS011;35622;52.008;5.426;2024-03-02T01:14:43;0.30;;;0.30;;
49730;SDS011;35622;52.008;5.426;2024-03-02T01:17:08;0.70;;;0.40;;
49730;SDS011;35622;52.008;5.426;2024-03-02T01:19:34;0.80;;;0.40;;
49730;SDS011;35622;52.008;5.426;2024-03-02T01:22:00;0.52;;;0.30;;
49730;SDS011;35622;52.008;5.426;2024-03-02T01:24:26;0.50;;;0.40;;
49730;SDS011;35622;52.008;5.426;2024-03-02T01:26:51;0.95;;;0.50;;
49730;SDS011;35622;52.008;5.426;2024-03-02T01:29:17;0.40;;;0.40;;
49730;SDS011;35622;52.008;5.426;2024-03-02T01:31:43;1.63;;;0.50;;
49730;SDS011;35622;52.008;5.426;2024-03-02T01:34:08;0.65;;;0.47;;
49730;SDS011;35622;52.008;5.426;2024-03-02T01:36:34;1.13;;;0.40;;
49730;SDS011;35622;52.008;5.426;2024-03-02T01:38:59;0.50;;;0.50;;
49730;SDS011;35622;52.008;5.426;2024-03-02T01:41:25;1.08;;;0.50;;
49730;SDS011;35622;52.008;5.426;2024-03-02T01:43:51;0.88;;;0.40;;
49730;SDS011;35622;52.008;5.426;2024-03-02T01:46:17;0.95;;;0.38;;
49730;SDS011;35622;52.008;5.426;2024-03-02T01:48:43;0.47;;;0.40;;
49730;SDS011;35622;52.008;5.426;2024-03-02T01:51:08;0.68;;;0.50;;
49730;SDS011;35622;52.008;5.426;2024-03-02T01:53:35;0.45;;;0.40;;
49730;SDS011;35622;52.008;5.426;2024-03-02T01:56:01;0.40;;;0.40;;
49730;SDS011;35622;52.008;5.426;2024-03-02T01:58:27;0.68;;;0.40;;
49730;SDS011;35622;52.008;5.426;2024-03-02T02:00:53;0.70;;;0.47;;
49730;SDS011;35622;52.008;5.426;2024-03-02T02:03:18;0.43;;;0.40;;
49730;SDS011;35622;52.008;5.426;2024-03-02T02:05:44;1.02;;;0.50;;
49730;SDS011;35622;52.008;5.426;2024-03-02T02:08:12;0.55;;;0.32;;
49730;SDS011;35622;52.008;5.426;2024-03-02T02:10:37;1.20;;;1.05;;
49730;SDS011;35622;52.008;5.426;2024-03-02T02:13:03;2.50;;;0.50;;
49730;SDS011;35622;52.008;5.426;2024-03-02T02:15:29;0.70;;;0.50;;
49730;SDS011;35622;52.008;5.426;2024-03-02T02:17:56;0.80;;;0.40;;
49730;SDS011;35622;52.008;5.426;2024-03-02T02:20:22;0.68;;;0.50;;
49730;SDS011;35622;52.008;5.426;2024-03-02T02:22:53;1.02;;;0.40;;
49730;SDS011;35622;52.008;5.426;2024-03-02T02:25:23;0.65;;;0.50;;
49730;SDS011;35622;52.008;5.426;2024-03-02T02:27:48;0.70;;;0.50;;
49730;SDS011;35622;52.008;5.426;2024-03-02T02:30:18;1.40;;;0.47;;
49730;SDS011;35622;52.008;5.426;2024-03-02T02:32:47;3.63;;;0.52;;
49730;SDS011;35622;52.008;5.426;2024-03-02T02:35:13;0.60;;;0.50;;
49730;SDS011;35622;52.008;5.426;2024-03-02T02:37:38;0.70;;;0.50;;
49730;SDS011;35622;52.008;5.426;2024-03-02T02:40:04;0.40;;;0.32;;
49730;SDS011;35622;52.008;5.426;2024-03-02T02:42:30;1.13;;;0.50;;
49730;SDS011;35622;52.008;5.426;2024-03-02T02:44:56;0.43;;;0.40;;
49730;SDS011;35622;52.008;5.426;2024-03-02T02:47:21;1.95;;;0.40;;
49730;SDS011;35622;52.008;5.426;2024-03-02T02:49:47;0.82;;;0.50;;
49730;SDS011;35622;52.008;5.426;2024-03-02T02:52:12;0.95;;;0.50;;
49730;SDS011;35622;52.008;5.426;2024-03-02T02:54:38;0.82;;;0.40;;
49730;SDS011;35622;52.008;5.426;2024-03-02T02:57:04;0.60;;;0.47;;
49730;SDS011;35622;52.008;5.426;2024-03-02T02:59:29;0.70;;;0.50;;
49730;SDS011;35622;52.008;5.426;2024-03-02T03:01:55;0.40;;;0.40;;
49730;SDS011;35622;52.008;5.426;2024-03-02T03:04:20;1.05;;;0.50;;
49730;SDS011;35622;52.008;5.426;2024-03-02T03:06:46;0.82;;;0.55;;
49730;SDS011;35622;52.008;5.426;2024-03-02T03:09:12;1.42;;;0.50;;
49730;SDS011;35622;52.008;5.426;2024-03-02T03:11:37;0.63;;;0.30;;
49730;SDS011;35622;52.008;5.426;2024-03-02T03:14:03;1.02;;;0.40;;
49730;SDS011;35622;52.008;5.426;2024-03-02T03:16:30;1.40;;;0.50;;
49730;SDS011;35622;52.008;5.426;2024-03-02T03:18:55;5.97;;;0.50;;
49730;SDS011;35622;52.008;5.426;2024-03-02T03:21:21;0.40;;;0.40;;
49730;SDS011;35622;52.008;5.426;2024-03-02T03:23:46;0.73;;;0.47;;
49730;SDS011;35622;52.008;5.426;2024-03-02T03:26:12;0.73;;;0.40;;
49730;SDS011;35622;52.008;5.426;2024-03-02T03:28:38;0.50;;;0.40;;
49730;SDS011;35622;52.008;5.426;2024-03-02T03:31:04;0.52;;;0.40;;
49730;SDS011;35622;52.008;5.426;2024-03-02T03:33:29;0.63;;;0.50;;
49730;SDS011;35622;52.008;5.426;2024-03-02T03:35:55;0.40;;;0.40;;
49730;SDS011;35622;52.008;5.426;2024-03-02T03:38:20;1.10;;;0.60;;
49730;SDS011;35622;52.008;5.426;2024-03-02T03:40:46;1.00;;;0.60;;
49730;SDS011;35622;52.008;5.426;2024-03-02T03:43:12;0.98;;;0.60;;
49730;SDS011;35622;52.008;5.426;2024-03-02T03:45:38;0.50;;;0.40;;
49730;SDS011;35622;52.008;5.426;2024-03-02T03:48:05;1.48;;;0.60;;
49730;SDS011;35622;52.008;5.426;2024-03-02T03:50:30;0.65;;;0.50;;
49730;SDS011;35622;52.008;5.426;2024-03-02T03:52:56;1.10;;;0.50;;
49730;SDS011;35622;52.008;5.426;2024-03-02T03:55:22;1.30;;;0.50;;
49730;SDS011;35622;52.008;5.426;2024-03-02T03:57:47;1.38;;;0.40;;
49730;SDS011;35622;52.008;5.426;2024-03-02T04:00:13;1.13;;;0.50;;
49730;SDS011;35622;52.008;5.426;2024-03-02T04:02:39;1.27;;;0.55;;
49730;SDS011;35622;52.008;5.426;2024-03-02T04:05:04;0.57;;;0.50;;
49730;SDS011;35622;52.008;5.426;2024-03-02T04:07:34;1.20;;;0.50;;
49730;SDS011;35622;52.008;5.426;2024-03-02T04:10:05;1.50;;;0.38;;
49730;SDS011;35622;52.008;5.426;2024-03-02T04:12:33;0.73;;;0.45;;
49730;SDS011;35622;52.008;5.426;2024-03-02T04:14:59;0.73;;;0.40;;
49730;SDS011;35622;52.008;5.426;2024-03-02T04:17:24;1.00;;;0.43;;
49730;SDS011;35622;52.008;5.426;2024-03-02T04:19:50;0.65;;;0.52;;
49730;SDS011;35622;52.008;5.426;2024-03-02T04:22:15;1.05;;;0.40;;
49730;SDS011;35622;52.008;5.426;2024-03-02T04:24:41;1.02;;;0.50;;
49730;SDS011;35622;52.008;5.426;2024-03-02T04:27:07;0.70;;;0.43;;
49730;SDS011;35622;52.008;5.426;2024-03-02T04:29:32;0.50;;;0.45;;
49730;SDS011;35622;52.008;5.426;2024-03-02T04:31:58;0.40;;;0.40;;
49730;SDS011;35622;52.008;5.426;2024-03-02T04:34:23;1.23;;;0.38;;
49730;SDS011;35622;52.008;5.426;2024-03-02T04:36:49;0.60;;;0.50;;
49730;SDS011;35622;52.008;5.426;2024-03-02T04:39:14;1.15;;;0.40;;
49730;SDS011;35622;52.008;5.426;2024-03-02T04:41:41;0.50;;;0.45;;
49730;SDS011;35622;52.008;5.426;2024-03-02T04:44:06;0.52;;;0.40;;
49730;SDS011;35622;52.008;5.426;2024-03-02T04:46:33;0.82;;;0.50;;
49730;SDS011;35622;52.008;5.426;2024-03-02T04:48:58;0.50;;;0.40;;
49730;SDS011;35622;52.008;5.426;2024-03-02T04:51:24;1.35;;;0.50;;
49730;SDS011;35622;52.008;5.426;2024-03-02T04:53:49;2.20;;;0.50;;
49730;SDS011;35622;52.008;5.426;2024-03-02T04:56:15;1.15;;;0.40;;
49730;SDS011;35622;52.008;5.426;2024-03-02T04:58:55;0.68;;;0.35;;
49730;SDS011;35622;52.008;5.426;2024-03-02T05:01:21;0.47;;;0.32;;
49730;SDS011;35622;52.008;5.426;2024-03-02T05:03:47;2.15;;;0.50;;
49730;SDS011;35622;52.008;5.426;2024-03-02T05:06:12;0.77;;;0.40;;
49730;SDS011;35622;52.008;5.426;2024-03-02T05:08:38;1.38;;;0.40;;
49730;SDS011;35622;52.008;5.426;2024-03-02T05:11:03;0.50;;;0.40;;
49730;SDS011;35622;52.008;5.426;2024-03-02T05:13:47;1.55;;;0.60;;
49730;SDS011;35622;52.008;5.426;2024-03-02T05:16:13;2.28;;;0.40;;
49730;SDS011;35622;52.008;5.426;2024-03-02T05:18:39;2.38;;;0.40;;
49730;SDS011;35622;52.008;5.426;2024-03-02T05:21:04;0.63;;;0.40;;
49730;SDS011;35622;52.008;5.426;2024-03-02T05:23:30;1.48;;;0.38;;
49730;SDS011;35622;52.008;5.426;2024-03-02T05:25:56;1.38;;;0.57;;
49730;SDS011;35622;52.008;5.426;2024-03-02T05:28:21;3.10;;;0.50;;
49730;SDS011;35622;52.008;5.426;2024-03-02T05:30:47;1.52;;;0.40;;
49730;SDS011;35622;52.008;5.426;2024-03-02T05:33:12;1.38;;;0.50;;
49730;SDS011;35622;52.008;5.426;2024-03-02T05:35:38;2.05;;;0.40;;
49730;SDS011;35622;52.008;5.426;2024-03-02T05:38:03;1.05;;;0.40;;
49730;SDS011;35622;52.008;5.426;2024-03-02T05:40:29;2.60;;;0.50;;
49730;SDS011;35622;52.008;5.426;2024-03-02T05:42:54;1.90;;;0.50;;
49730;SDS011;35622;52.008;5.426;2024-03-02T05:45:20;2.17;;;0.45;;
49730;SDS011;35622;52.008;5.426;2024-03-02T05:47:46;3.22;;;0.77;;
49730;SDS011;35622;52.008;5.426;2024-03-02T05:50:11;2.78;;;0.50;;
49730;SDS011;35622;52.008;5.426;2024-03-02T05:52:37;1.48;;;0.50;;
49730;SDS011;35622;52.008;5.426;2024-03-02T05:55:03;1.98;;;0.47;;
49730;SDS011;35622;52.008;5.426;2024-03-02T05:57:29;2.08;;;0.60;;
49730;SDS011;35622;52.008;5.426;2024-03-02T06:00:20;3.30;;;0.60;;
49730;SDS011;35622;52.008;5.426;2024-03-02T06:02:47;1.00;;;0.50;;
49730;SDS011;35622;52.008;5.426;2024-03-02T06:05:13;1.70;;;0.50;;
49730;SDS011;35622;52.008;5.426;2024-03-02T06:07:40;1.35;;;0.50;;
49730;SDS011;35622;52.008;5.426;2024-03-02T06:10:05;1.73;;;0.50;;
49730;SDS011;35622;52.008;5.426;2024-03-02T06:12:32;0.95;;;0.40;;
49730;SDS011;35622;52.008;5.426;2024-03-02T06:14:58;1.17;;;0.50;;
49730;SDS011;35622;52.008;5.426;2024-03-02T06:17:23;2.33;;;0.70;;
49730;SDS011;35622;52.008;5.426;2024-03-02T06:19:49;1.20;;;0.50;;
49730;SDS011;35622;52.008;5.426;2024-03-02T06:22:14;1.17;;;0.50;;
49730;SDS011;35622;52.008;5.426;2024-03-02T06:24:40;1.17;;;0.52;;
49730;SDS011;35622;52.008;5.426;2024-03-02T06:27:05;1.17;;;0.70;;
49730;SDS011;35622;52.008;5.426;2024-03-02T06:29:34;2.33;;;0.60;;
49730;SDS011;35622;52.008;5.426;2024-03-02T06:32:00;3.22;;;0.60;;
49730;SDS011;35622;52.008;5.426;2024-03-02T06:34:25;4.22;;;0.55;;
49730;SDS011;35622;52.008;5.426;2024-03-02T06:36:51;1.75;;;0.70;;
49730;SDS011;35622;52.008;5.426;2024-03-02T06:39:16;1.60;;;0.60;;
49730;SDS011;35622;52.008;5.426;2024-03-02T06:41:42;0.93;;;0.60;;
49730;SDS011;35622;52.008;5.426;2024-03-02T06:44:08;2.20;;;0.47;;
49730;SDS011;35622;52.008;5.426;2024-03-02T06:46:33;1.90;;;0.60;;
49730;SDS011;35622;52.008;5.426;2024-03-02T06:48:59;0.65;;;0.40;;
49730;SDS011;35622;52.008;5.426;2024-03-02T06:51:27;0.93;;;0.40;;
49730;SDS011;35622;52.008;5.426;2024-03-02T06:53:52;2.70;;;0.60;;
49730;SDS011;35622;52.008;5.426;2024-03-02T06:56:18;1.13;;;0.57;;
49730;SDS011;35622;52.008;5.426;2024-03-02T06:58:44;3.20;;;0.70;;
49730;SDS011;35622;52.008;5.426;2024-03-02T07:01:09;2.03;;;0.80;;
49730;SDS011;35622;52.008;5.426;2024-03-02T07:03:35;2.13;;;0.70;;
49730;SDS011;35622;52.008;5.426;2024-03-02T07:06:00;2.53;;;0.65;;
49730;SDS011;35622;52.008;5.426;2024-03-02T07:08:26;1.90;;;0.70;;
49730;SDS011;35622;52.008;5.426;2024-03-02T07:10:52;2.13;;;0.50;;
49730;SDS011;35622;52.008;5.426;2024-03-02T07:13:17;1.25;;;0.57;;
49730;SDS011;35622;52.008;5.426;2024-03-02T07:15:43;1.33;;;0.60;;
49730;SDS011;35622;52.008;5.426;2024-03-02T07:18:31;2.78;;;0.60;;
49730;SDS011;35622;52.008;5.426;2024-03-02T07:20:58;1.63;;;0.70;;
49730;SDS011;35622;52.008;5.426;2024-03-02T07:23:26;2.45;;;0.60;;
49730;SDS011;35622;52.008;5.426;2024-03-02T07:25:55;1.63;;;0.50;;
49730;SDS011;35622;52.008;5.426;2024-03-02T07:28:21;2.33;;;0.70;;
49730;SDS011;35622;52.008;5.426;2024-03-02T07:30:50;1.85;;;0.60;;
49730;SDS011;35622;52.008;5.426;2024-03-02T07:33:23;0.47;;;0.40;;
49730;SDS011;35622;52.008;5.426;2024-03-02T07:35:49;1.17;;;0.40;;
49730;SDS011;35622;52.008;5.426;2024-03-02T07:38:15;1.45;;;0.50;;
49730;SDS011;35622;52.008;5.426;2024-03-02T07:40:40;1.40;;;0.52;;
49730;SDS011;35622;52.008;5.426;2024-03-02T07:43:07;1.15;;;0.47;;
49730;SDS011;35622;52.008;5.426;2024-03-02T07:45:33;0.68;;;0.40;;
49730;SDS011;35622;52.008;5.426;2024-03-02T07:48:01;1.05;;;0.50;;
49730;SDS011;35622;52.008;5.426;2024-03-02T07:50:28;0.85;;;0.52;;
49730;SDS011;35622;52.008;5.426;2024-03-02T07:52:54;0.75;;;0.32;;
49730;SDS011;35622;52.008;5.426;2024-03-02T07:55:19;2.58;;;0.52;;
49730;SDS011;35622;52.008;5.426;2024-03-02T07:57:45;0.57;;;0.40;;
49730;SDS011;35622;52.008;5.426;2024-03-02T08:00:10;2.35;;;0.45;;
49730;SDS011;35622;52.008;5.426;2024-03-02T08:02:36;0.98;;;0.50;;
49730;SDS011;35622;52.008;5.426;2024-03-02T08:05:02;3.13;;;0.60;;
49730;SDS011;35622;52.008;5.426;2024-03-02T08:07:28;2.42;;;0.55;;
49730;SDS011;35622;52.008;5.426;2024-03-02T08:09:53;2.67;;;0.65;;
49730;SDS011;35622;52.008;5.426;2024-03-02T08:12:19;2.67;;;0.50;;
49730;SDS011;35622;52.008;5.426;2024-03-02T08:14:46;1.63;;;0.60;;
49730;SDS011;35622;52.008;5.426;2024-03-02T08:17:12;1.05;;;0.55;;
49730;SDS011;35622;52.008;5.426;2024-03-02T08:19:38;1.92;;;0.40;;
49730;SDS011;35622;52.008;5.426;2024-03-02T08:22:03;2.03;;;0.47;;
49730;SDS011;35622;52.008;5.426;2024-03-02T08:24:29;2.53;;;0.47;;
49730;SDS011;35622;52.008;5.426;2024-03-02T08:26:55;1.48;;;0.50;;
49730;SDS011;35622;52.008;5.426;2024-03-02T08:29:20;1.20;;;0.43;;
49730;SDS011;35622;52.008;5.426;2024-03-02T08:31:46;1.63;;;0.68;;
49730;SDS011;35622;52.008;5.426;2024-03-02T08:34:11;1.02;;;0.50;;
49730;SDS011;35622;52.008;5.426;2024-03-02T08:36:37;2.55;;;0.70;;
49730;SDS011;35622;52.008;5.426;2024-03-02T08:39:03;1.38;;;0.47;;
49730;SDS011;35622;52.008;5.426;2024-03-02T08:41:32;3.85;;;0.60;;
49730;SDS011;35622;52.008;5.426;2024-03-02T08:43:58;2.90;;;0.60;;
49730;SDS011;35622;52.008;5.426;2024-03-02T08:46:23;2.35;;;0.73;;
49730;SDS011;35622;52.008;5.426;2024-03-02T08:48:49;2.42;;;0.40;;
49730;SDS011;35622;52.008;5.426;2024-03-02T08:51:15;2.38;;;0.88;;
49730;SDS011;35622;52.008;5.426;2024-03-02T08:53:40;2.95;;;0.60;;
49730;SDS011;35622;52.008;5.426;2024-03-02T08:56:07;1.45;;;0.50;;
49730;SDS011;35622;52.008;5.426;2024-03-02T08:58:33;2.67;;;0.60;;
49730;SDS011;35622;52.008;5.426;2024-03-02T09:00:58;2.95;;;0.60;;
49730;SDS011;35622;52.008;5.426;2024-03-02T09:03:24;1.73;;;0.60;;
49730;SDS011;35622;52.008;5.426;2024-03-02T09:05:50;2.60;;;0.55;;
49730;SDS011;35622;52.008;5.426;2024-03-02T09:08:15;2.90;;;0.43;;
49730;SDS011;35622;52.008;5.426;2024-03-02T09:10:41;1.83;;;0.57;;
49730;SDS011;35622;52.008;5.426;2024-03-02T09:13:06;2.38;;;0.52;;
49730;SDS011;35622;52.008;5.426;2024-03-02T09:15:32;2.58;;;0.70;;
49730;SDS011;35622;52.008;5.426;2024-03-02T09:17:58;1.40;;;0.52;;
49730;SDS011;35622;52.008;5.426;2024-03-02T09:20:23;3.78;;;0.82;;
49730;SDS011;35622;52.008;5.426;2024-03-02T09:22:49;2.80;;;0.70;;
49730;SDS011;35622;52.008;5.426;2024-03-02T09:25:14;1.75;;;0.60;;
49730;SDS011;35622;52.008;5.426;2024-03-02T09:27:41;2.58;;;0.80;;
49730;SDS011;35622;52.008;5.426;2024-03-02T09:30:09;2.22;;;0.73;;
49730;SDS011;35622;52.008;5.426;2024-03-02T09:32:36;2.28;;;0.70;;
49730;SDS011;35622;52.008;5.426;2024-03-02T09:35:02;4.63;;;0.70;;
49730;SDS011;35622;52.008;5.426;2024-03-02T09:37:28;2.15;;;0.65;;
49730;SDS011;35622;52.008;5.426;2024-03-02T09:39:54;2.35;;;0.55;;
49730;SDS011;35622;52.008;5.426;2024-03-02T09:42:20;1.60;;;0.75;;
49730;SDS011;35622;52.008;5.426;2024-03-02T09:44:46;3.92;;;1.00;;
49730;SDS011;35622;52.008;5.426;2024-03-02T09:47:12;1.83;;;0.70;;
49730;SDS011;35622;52.008;5.426;2024-03-02T09:49:38;2.38;;;0.80;;
49730;SDS011;35622;52.008;5.426;2024-03-02T09:52:05;3.53;;;0.70;;
49730;SDS011;35622;52.008;5.426;2024-03-02T09:54:31;3.25;;;0.70;;
49730;SDS011;35622;52.008;5.426;2024-03-02T09:56:57;3.50;;;0.80;;
49730;SDS011;35622;52.008;5.426;2024-03-02T09:59:23;4.53;;;0.80;;
49730;SDS011;35622;52.008;5.426;2024-03-02T10:01:55;3.35;;;0.70;;
49730;SDS011;35622;52.008;5.426;2024-03-02T10:04:22;2.40;;;0.68;;
49730;SDS011;35622;52.008;5.426;2024-03-02T10:07:09;4.57;;;0.90;;
49730;SDS011;35622;52.008;5.426;2024-03-02T10:09:36;1.77;;;0.60;;
49730;SDS011;35622;52.008;5.426;2024-03-02T10:12:06;1.95;;;0.65;;
49730;SDS011;35622;52.008;5.426;2024-03-02T10:14:33;3.88;;;0.68;;
49730;SDS011;35622;52.008;5.426;2024-03-02T10:17:06;3.33;;;0.93;;
49730;SDS011;35622;52.008;5.426;2024-03-02T10:19:32;2.90;;;0.70;;
49730;SDS011;35622;52.008;5.426;2024-03-02T10:21:59;3.20;;;0.63;;
49730;SDS011;35622;52.008;5.426;2024-03-02T10:24:27;3.58;;;0.88;;
49730;SDS011;35622;52.008;5.426;2024-03-02T10:26:59;2.30;;;0.70;;
49730;SDS011;35622;52.008;5.426;2024-03-02T10:29:25;3.08;;;0.65;;
49730;SDS011;35622;52.008;5.426;2024-03-02T10:31:53;2.92;;;0.63;;
49730;SDS011;35622;52.008;5.426;2024-03-02T10:34:19;4.20;;;0.73;;
49730;SDS011;35622;52.008;5.426;2024-03-02T10:36:46;1.85;;;0.60;;
49730;SDS011;35622;52.008;5.426;2024-03-02T10:39:13;2.78;;;0.70;;
49730;SDS011;35622;52.008;5.426;2024-03-02T10:41:40;2.55;;;0.50;;
49730;SDS011;35622;52.008;5.426;2024-03-02T10:44:07;3.33;;;0.70;;
49730;SDS011;35622;52.008;5.426;2024-03-02T10:46:34;3.63;;;1.10;;
49730;SDS011;35622;52.008;5.426;2024-03-02T10:49:01;2.13;;;0.65;;
49730;SDS011;35622;52.008;5.426;2024-03-02T10:51:30;2.83;;;0.82;;
49730;SDS011;35622;52.008;5.426;2024-03-02T10:54:00;1.95;;;0.60;;
49730;SDS011;35622;52.008;5.426;2024-03-02T10:56:47;1.83;;;0.57;;
49730;SDS011;35622;52.008;5.426;2024-03-02T10:59:56;3.47;;;0.57;;
49730;SDS011;35622;52.008;5.426;2024-03-02T11:02:04;2.63;;;0.68;;
49730;SDS011;35622;52.008;5.426;2024-03-02T11:04:33;2.03;;;0.60;;
49730;SDS011;35622;52.008;5.426;2024-03-02T11:09:28;3.45;;;0.52;;
49730;SDS011;35622;52.008;5.426;2024-03-02T11:14:58;2.25;;;0.50;;
49730;SDS011;35622;52.008;5.426;2024-03-02T11:17:25;2.58;;;0.65;;
49730;SDS011;35622;52.008;5.426;2024-03-02T11:19:52;1.83;;;0.50;;
49730;SDS011;35622;52.008;5.426;2024-03-02T11:22:18;1.58;;;0.55;;
49730;SDS011;35622;52.008;5.426;2024-03-02T11:24:50;3.47;;;0.60;;
49730;SDS011;35622;52.008;5.426;2024-03-02T11:33:05;1.98;;;0.45;;
49730;SDS011;35622;52.008;5.426;2024-03-02T11:35:37;3.03;;;0.68;;
49730;SDS011;35622;52.008;5.426;2024-03-02T11:38:06;2.00;;;0.60;;
49730;SDS011;35622;52.008;5.426;2024-03-02T11:40:32;2.85;;;0.55;;
49730;SDS011;35622;52.008;5.426;2024-03-02T11:42:59;2.25;;;0.70;;
49730;SDS011;35622;52.008;5.426;2024-03-02T11:45:28;2.30;;;0.45;;
49730;SDS011;35622;52.008;5.426;2024-03-02T11:47:55;2.05;;;0.50;;
49730;SDS011;35622;52.008;5.426;2024-03-02T11:50:35;3.40;;;0.52;;
49730;SDS011;35622;52.008;5.426;2024-03-02T11:53:08;4.35;;;0.70;;
49730;SDS011;35622;52.008;5.426;2024-03-02T11:55:39;2.58;;;0.60;;
49730;SDS011;35622;52.008;5.426;2024-03-02T11:58:11;3.05;;;0.60;;
49730;SDS011;35622;52.008;5.426;2024-03-02T12:00:38;2.03;;;0.50;;
49730;SDS011;35622;52.008;5.426;2024-03-02T12:03:08;1.67;;;0.50;;
49730;SDS011;35622;52.008;5.426;2024-03-02T12:05:35;2.38;;;0.50;;
49730;SDS011;35622;52.008;5.426;2024-03-02T12:08:01;2.25;;;0.57;;
49730;SDS011;35622;52.008;5.426;2024-03-02T12:10:29;2.97;;;0.55;;
49730;SDS011;35622;52.008;5.426;2024-03-02T12:12:59;1.77;;;0.50;;
49730;SDS011;35622;52.008;5.426;2024-03-02T12:15:35;2.30;;;0.50;;
49730;SDS011;35622;52.008;5.426;2024-03-02T12:18:02;2.35;;;0.60;;
49730;SDS011;35622;52.008;5.426;2024-03-02T12:20:28;2.13;;;0.55;;
49730;SDS011;35622;52.008;5.426;2024-03-02T12:22:59;6.60;;;0.88;;
49730;SDS011;35622;52.008;5.426;2024-03-02T12:25:27;4.40;;;0.60;;
49730;SDS011;35622;52.008;5.426;2024-03-02T12:27:55;3.10;;;1.08;;
49730;SDS011;35622;52.008;5.426;2024-03-02T12:30:22;4.03;;;0.70;;
49730;SDS011;35622;52.008;5.426;2024-03-02T12:32:48;2.33;;;0.70;;
49730;SDS011;35622;52.008;5.426;2024-03-02T12:35:15;2.97;;;0.63;;
49730;SDS011;35622;52.008;5.426;2024-03-02T12:40:13;4.18;;;0.60;;
49730;SDS011;35622;52.008;5.426;2024-03-02T12:42:40;2.63;;;0.70;;
49730;SDS011;35622;52.008;5.426;2024-03-02T12:45:07;2.53;;;0.60;;
49730;SDS011;35622;52.008;5.426;2024-03-02T12:47:33;3.13;;;0.65;;
49730;SDS011;35622;52.008;5.426;2024-03-02T12:50:00;2.13;;;0.52;;
49730;SDS011;35622;52.008;5.426;2024-03-02T12:52:26;4.25;;;0.80;;
49730;SDS011;35622;52.008;5.426;2024-03-02T12:54:51;4.18;;;0.82;;
49730;SDS011;35622;52.008;5.426;2024-03-02T12:57:20;3.30;;;0.85;;
49730;SDS011;35622;52.008;5.426;2024-03-02T12:59:46;4.32;;;0.70;;
49730;SDS011;35622;52.008;5.426;2024-03-02T13:02:19;4.45;;;0.80;;
49730;SDS011;35622;52.008;5.426;2024-03-02T13:04:51;3.30;;;0.88;;
49730;SDS011;35622;52.008;5.426;2024-03-02T13:07:19;3.45;;;0.80;;
49730;SDS011;35622;52.008;5.426;2024-03-02T13:09:49;5.78;;;0.70;;
49730;SDS011;35622;52.008;5.426;2024-03-02T13:12:15;5.35;;;1.23;;
49730;SDS011;35622;52.008;5.426;2024-03-02T13:14:41;2.83;;;0.63;;
49730;SDS011;35622;52.008;5.426;2024-03-02T13:17:08;5.30;;;0.80;;
49730;SDS011;35622;52.008;5.426;2024-03-02T13:19:43;4.18;;;0.88;;
49730;SDS011;35622;52.008;5.426;2024-03-02T13:22:18;4.20;;;0.90;;
49730;SDS011;35622;52.008;5.426;2024-03-02T13:24:44;3.33;;;0.80;;
49730;SDS011;35622;52.008;5.426;2024-03-02T13:27:09;4.53;;;1.10;;
49730;SDS011;35622;52.008;5.426;2024-03-02T13:29:35;2.95;;;0.80;;
49730;SDS011;35622;52.008;5.426;2024-03-02T13:32:01;3.20;;;0.52;;
49730;SDS011;35622;52.008;5.426;2024-03-02T13:34:26;7.57;;;1.40;;
49730;SDS011;35622;52.008;5.426;2024-03-02T13:36:52;2.83;;;0.90;;
49730;SDS011;35622;52.008;5.426;2024-03-02T13:39:17;4.05;;;0.88;;
49730;SDS011;35622;52.008;5.426;2024-03-02T13:41:43;1.65;;;0.90;;
49730;SDS011;35622;52.008;5.426;2024-03-02T13:44:17;3.80;;;0.80;;
49730;SDS011;35622;52.008;5.426;2024-03-02T13:46:43;3.55;;;1.23;;
49730;SDS011;35622;52.008;5.426;2024-03-02T13:49:10;3.50;;;1.10;;
49730;SDS011;35622;52.008;5.426;2024-03-02T13:51:36;1.77;;;0.80;;
49730;SDS011;35622;52.008;5.426;2024-03-02T13:54:02;2.20;;;0.90;;
49730;SDS011;35622;52.008;5.426;2024-03-02T13:56:28;5.28;;;1.10;;
49730;SDS011;35622;52.008;5.426;2024-03-02T13:58:54;3.33;;;0.77;;
49730;SDS011;35622;52.008;5.426;2024-03-02T14:01:20;4.57;;;1.10;;
49730;SDS011;35622;52.008;5.426;2024-03-02T14:03:46;2.83;;;0.82;;
49730;SDS011;35622;52.008;5.426;2024-03-02T14:06:12;3.50;;;0.93;;
49730;SDS011;35622;52.008;5.426;2024-03-02T14:08:38;2.58;;;0.77;;
49730;SDS011;35622;52.008;5.426;2024-03-02T14:11:03;3.20;;;0.85;;
49730;SDS011;35622;52.008;5.426;2024-03-02T14:13:29;5.28;;;0.93;;
49730;SDS011;35622;52.008;5.426;2024-03-02T14:15:55;4.72;;;0.95;;
49730;SDS011;35622;52.008;5.426;2024-03-02T14:18:20;4.68;;;1.10;;
49730;SDS011;35622;52.008;5.426;2024-03-02T14:20:46;3.22;;;0.85;;
49730;SDS011;35622;52.008;5.426;2024-03-02T14:23:17;2.45;;;0.90;;
49730;SDS011;35622;52.008;5.426;2024-03-02T14:25:44;4.05;;;0.90;;
49730;SDS011;35622;52.008;5.426;2024-03-02T14:28:10;2.15;;;0.60;;
49730;SDS011;35622;52.008;5.426;2024-03-02T14:30:37;1.73;;;0.80;;
49730;SDS011;35622;52.008;5.426;2024-03-02T14:33:02;3.03;;;0.80;;
49730;SDS011;35622;52.008;5.426;2024-03-02T14:35:28;5.20;;;1.00;;
49730;SDS011;35622;52.008;5.426;2024-03-02T14:37:54;2.35;;;0.85;;
49730;SDS011;35622;52.008;5.426;2024-03-02T14:40:20;3.47;;;0.93;;
49730;SDS011;35622;52.008;5.426;2024-03-02T14:42:46;2.42;;;0.73;;
49730;SDS011;35622;52.008;5.426;2024-03-02T14:45:13;3.40;;;0.80;;
49730;SDS011;35622;52.008;5.426;2024-03-02T14:47:39;2.63;;;0.80;;
49730;SDS011;35622;52.008;5.426;2024-03-02T14:50:05;2.10;;;0.90;;
49730;SDS011;35622;52.008;5.426;2024-03-02T14:52:31;3.55;;;0.70;;
49730;SDS011;35622;52.008;5.426;2024-03-02T14:54:57;4.75;;;0.90;;
49730;SDS011;35622;52.008;5.426;2024-03-02T14:57:23;3.78;;;0.80;;
49730;SDS011;35622;52.008;5.426;2024-03-02T14:59:49;4.05;;;0.77;;
49730;SDS011;35622;52.008;5.426;2024-03-02T15:02:14;2.13;;;0.60;;
49730;SDS011;35622;52.008;5.426;2024-03-02T15:04:40;4.50;;;0.75;;
49730;SDS011;35622;52.008;5.426;2024-03-02T15:07:06;2.55;;;0.70;;